createdAt,value
2023-04-02T00:00:17.790Z,3.80
2023-04-02T00:03:03.565Z,4.50
2023-04-02T00:05:56.165Z,4.10
2023-04-02T00:08:30.941Z,3.70
2023-04-02T00:11:01.442Z,5.77
2023-04-02T00:13:36.910Z,5.33
2023-04-02T00:16:09.896Z,3.83
2023-04-02T00:18:44.053Z,4.17
2023-04-02T00:21:21.459Z,3.70
2023-04-02T00:23:50.449Z,3.10
2023-04-02T00:26:24.686Z,3.60
2023-04-02T00:28:53.669Z,4.17
2023-04-02T00:31:23.511Z,3.93
2023-04-02T00:33:51.998Z,4.43
2023-04-02T00:36:21.863Z,3.03
2023-04-02T00:38:50.475Z,4.07
2023-04-02T00:41:27.106Z,2.90
2023-04-02T00:43:57.668Z,3.80
2023-04-02T00:46:32.581Z,3.60
2023-04-02T00:49:08.050Z,3.00
2023-04-02T00:51:41.669Z,2.73
2023-04-02T00:54:15.793Z,3.50
2023-04-02T00:56:47.411Z,3.30
2023-04-02T00:59:26.691Z,3.73
2023-04-02T01:02:02.509Z,3.03
2023-04-02T01:04:34.737Z,3.27
2023-04-02T01:07:06.999Z,3.20
2023-04-02T01:09:51.730Z,4.10
2023-04-02T01:12:39.102Z,4.87
2023-04-02T01:15:14.315Z,2.80
2023-04-02T01:18:04.700Z,3.43
2023-04-02T01:21:04.304Z,3.40
2023-04-02T01:23:42.020Z,2.10
2023-04-02T01:26:18.811Z,2.90
2023-04-02T01:29:02.721Z,2.93
2023-04-02T01:31:33.098Z,4.30
2023-04-02T01:34:03.646Z,3.57
2023-04-02T01:36:42.136Z,2.93
2023-04-02T01:39:25.506Z,3.03
2023-04-02T01:42:02.122Z,2.50
2023-04-02T01:44:38.563Z,3.33
2023-04-02T01:47:11.886Z,2.63
2023-04-02T01:49:41.143Z,3.03
2023-04-02T01:52:09.364Z,3.10
2023-04-02T01:54:38.746Z,2.10
2023-04-02T01:57:06.845Z,3.20
2023-04-02T01:59:36.438Z,2.60
2023-04-02T02:02:07.626Z,2.90
2023-04-02T02:04:36.097Z,1.93
2023-04-02T02:07:05.656Z,4.40
2023-04-02T02:09:36.342Z,2.43
2023-04-02T02:12:06.635Z,2.47
2023-04-02T02:14:36.040Z,3.37
2023-04-02T02:17:13.239Z,2.97
2023-04-02T02:19:45.170Z,2.80
2023-04-02T02:22:28.536Z,2.10
2023-04-02T02:24:58.957Z,3.90
2023-04-02T02:27:48.316Z,3.50
2023-04-02T02:30:23.286Z,2.47
2023-04-02T02:33:02.097Z,2.53
2023-04-02T02:35:35.737Z,2.83
2023-04-02T02:38:31.389Z,2.37
2023-04-02T02:41:05.721Z,1.83
2023-04-02T02:43:36.328Z,2.40
2023-04-02T02:46:07.136Z,1.90
2023-04-02T02:48:39.349Z,2.03
2023-04-02T02:51:14.532Z,2.20
2023-04-02T02:53:50.594Z,3.23
2023-04-02T02:56:20.472Z,2.20
2023-04-02T02:58:49.052Z,1.47
2023-04-02T03:01:18.953Z,2.00
2023-04-02T03:03:48.800Z,3.30
2023-04-02T03:06:20.521Z,3.23
2023-04-02T03:08:55.764Z,2.00
2023-04-02T03:11:30.596Z,2.33
2023-04-02T03:14:09.105Z,1.40
2023-04-02T03:16:45.380Z,2.30
2023-04-02T03:19:27.977Z,3.00
2023-04-02T03:22:02.987Z,2.50
2023-04-02T03:24:38.651Z,2.50
2023-04-02T03:27:13.109Z,1.70
2023-04-02T03:29:45.240Z,1.40
2023-04-02T03:32:20.432Z,1.83
2023-04-02T03:34:53.707Z,2.50
2023-04-02T03:37:29.033Z,2.10
2023-04-02T03:40:04.485Z,4.30
2023-04-02T03:42:42.198Z,1.50
2023-04-02T03:45:16.829Z,1.77
2023-04-02T03:47:53.779Z,1.70
2023-04-02T03:50:28.043Z,1.90
2023-04-02T03:52:57.889Z,1.60
2023-04-02T03:55:29.830Z,2.07
2023-04-02T03:58:03.181Z,1.93
2023-04-02T04:00:37.687Z,2.20
2023-04-02T04:03:15.055Z,2.60
2023-04-02T04:05:50.316Z,2.57
2023-04-02T04:08:23.143Z,2.00
2023-04-02T04:10:53.580Z,2.33
2023-04-02T04:13:28.986Z,1.90
2023-04-02T04:16:01.736Z,3.00
2023-04-02T04:18:40.763Z,1.60
2023-04-02T04:21:17.005Z,1.80
2023-04-02T04:23:52.109Z,2.17
2023-04-02T04:26:25.080Z,1.50
2023-04-02T04:29:05.709Z,2.30
2023-04-02T04:31:39.866Z,2.63
2023-04-02T04:34:16.625Z,1.53
2023-04-02T04:36:54.258Z,2.10
2023-04-02T04:39:29.807Z,2.33
2023-04-02T04:42:00.941Z,3.50
2023-04-02T04:44:43.202Z,1.87
2023-04-02T04:47:18.866Z,1.63
2023-04-02T04:49:53.360Z,1.80
2023-04-02T04:52:25.350Z,1.50
2023-04-02T04:54:53.864Z,3.60
2023-04-02T04:57:31.685Z,2.13
2023-04-02T05:00:08.850Z,1.37
2023-04-02T05:02:43.661Z,2.27
2023-04-02T05:05:22.066Z,2.00
2023-04-02T05:07:54.334Z,2.00
2023-04-02T05:10:31.686Z,1.37
2023-04-02T05:13:05.496Z,2.33
2023-04-02T05:15:40.021Z,1.40
2023-04-02T05:18:20.731Z,2.27
2023-04-02T05:20:57.608Z,1.80
2023-04-02T05:23:29.406Z,2.97
2023-04-02T05:26:06.490Z,1.10
2023-04-02T05:28:40.295Z,1.60
2023-04-02T05:31:13.568Z,1.73
2023-04-02T05:33:46.787Z,1.53
2023-04-02T05:36:23.923Z,1.23
2023-04-02T05:38:53.587Z,1.30
2023-04-02T05:41:27.782Z,2.00
2023-04-02T05:44:09.382Z,1.37
2023-04-02T05:46:46.776Z,1.57
2023-04-02T05:49:22.272Z,1.47
2023-04-02T05:51:57.603Z,2.13
2023-04-02T05:54:32.276Z,1.20
2023-04-02T05:57:04.888Z,1.63
2023-04-02T05:59:39.047Z,2.00
2023-04-02T06:02:18.620Z,1.43
2023-04-02T06:04:53.686Z,1.53
2023-04-02T06:07:25.751Z,1.77
2023-04-02T06:09:58.047Z,2.90
2023-04-02T06:12:34.092Z,1.70
2023-04-02T06:15:02.479Z,1.00
2023-04-02T06:17:30.842Z,1.27
2023-04-02T06:20:00.883Z,1.23
2023-04-02T06:22:38.122Z,1.20
2023-04-02T06:25:14.585Z,2.90
2023-04-02T06:27:45.054Z,1.40
2023-04-02T06:30:20.617Z,1.67
2023-04-02T06:32:48.833Z,2.13
2023-04-02T06:35:17.418Z,1.30
2023-04-02T06:37:49.625Z,1.80
2023-04-02T06:40:35.572Z,2.83
2023-04-02T06:43:12.590Z,1.73
2023-04-02T06:45:44.581Z,1.30
2023-04-02T06:48:18.688Z,1.97
2023-04-02T06:50:51.115Z,1.80
2023-04-02T06:53:26.559Z,1.90
2023-04-02T06:56:02.032Z,1.37
2023-04-02T06:58:30.053Z,2.23
2023-04-02T07:00:58.266Z,1.80
2023-04-02T07:03:30.029Z,1.63
2023-04-02T07:05:59.111Z,1.57
2023-04-02T07:08:28.454Z,3.03
2023-04-02T07:10:57.116Z,2.33
2023-04-02T07:13:26.331Z,2.67
2023-04-02T07:15:56.174Z,1.20
2023-04-02T07:18:28.759Z,1.47
2023-04-02T07:20:57.568Z,1.37
2023-04-02T07:23:25.985Z,1.87
2023-04-02T07:25:57.464Z,2.30
2023-04-02T07:28:26.541Z,1.90
2023-04-02T07:30:55.224Z,1.83
2023-04-02T07:33:26.335Z,2.40
2023-04-02T07:35:57.339Z,1.90
2023-04-02T07:38:25.853Z,2.80
2023-04-02T07:40:55.255Z,1.30
2023-04-02T07:43:23.286Z,2.70
2023-04-02T07:45:51.656Z,2.03
2023-04-02T07:48:19.713Z,1.97
2023-04-02T07:50:47.685Z,1.50
2023-04-02T07:53:29.861Z,1.60
2023-04-02T07:56:01.427Z,2.50
2023-04-02T07:58:30.328Z,1.63
2023-04-02T08:00:58.838Z,1.60
2023-04-02T08:03:27.735Z,1.20
2023-04-02T08:05:58.493Z,3.53
2023-04-02T08:08:27.105Z,1.30
2023-04-02T08:10:55.597Z,1.47
2023-04-02T08:13:25.027Z,2.87
2023-04-02T08:15:52.996Z,1.33
2023-04-02T08:18:23.658Z,2.17
2023-04-02T08:20:52.531Z,1.50
2023-04-02T08:23:21.626Z,1.30
2023-04-02T08:25:49.672Z,2.00
2023-04-02T08:28:18.413Z,1.33
2023-04-02T08:30:48.888Z,1.47
2023-04-02T08:33:17.936Z,5.60
2023-04-02T08:35:46.319Z,10.40
2023-04-02T08:38:16.410Z,10.93
2023-04-02T08:40:46.786Z,11.80
2023-04-02T08:43:28.739Z,10.43
2023-04-02T08:46:06.568Z,11.50
2023-04-02T08:48:39.692Z,10.10
2023-04-02T08:51:20.895Z,12.80
2023-04-02T08:53:49.290Z,12.77
2023-04-02T08:56:22.163Z,10.33
2023-04-02T08:58:53.616Z,10.47
2023-04-02T09:01:35.750Z,9.30
2023-04-02T09:04:13.820Z,12.10
2023-04-02T09:06:43.738Z,10.70
2023-04-02T09:09:14.830Z,10.10
2023-04-02T09:11:52.715Z,17.57
2023-04-02T09:14:25.828Z,10.87
2023-04-02T09:17:00.096Z,11.23
2023-04-02T09:19:36.532Z,9.40
2023-04-02T09:22:09.676Z,9.40
2023-04-02T09:24:38.755Z,12.00
2023-04-02T09:27:19.584Z,10.47
2023-04-02T09:29:50.465Z,9.47
2023-04-02T09:32:47.128Z,7.57
2023-04-02T09:35:26.196Z,9.33
2023-04-02T09:38:21.873Z,8.47
2023-04-02T09:40:52.765Z,12.23
2023-04-02T09:43:23.268Z,7.53
2023-04-02T09:46:00.723Z,7.07
2023-04-02T09:48:33.793Z,8.67
2023-04-02T09:51:13.173Z,7.87
2023-04-02T09:53:43.096Z,7.80
2023-04-02T09:56:15.642Z,8.83
2023-04-02T09:58:45.491Z,6.53
2023-04-02T10:01:30.959Z,9.33
2023-04-02T10:04:01.082Z,6.10
2023-04-02T10:06:30.838Z,5.87
2023-04-02T10:08:59.438Z,6.03
2023-04-02T10:11:45.391Z,8.97
2023-04-02T10:14:21.056Z,10.20
2023-04-02T10:16:53.437Z,19.87
2023-04-02T10:19:32.472Z,15.23
2023-04-02T10:22:06.092Z,18.20
2023-04-02T10:24:34.106Z,16.93
2023-04-02T10:27:17.341Z,23.00
2023-04-02T10:30:02.224Z,22.33
2023-04-02T10:32:37.809Z,21.50
2023-04-02T10:35:19.648Z,12.90
2023-04-02T10:38:11.042Z,14.57
2023-04-02T10:40:43.988Z,12.10
2023-04-02T10:43:45.326Z,10.20
2023-04-02T10:46:21.383Z,14.87
2023-04-02T10:49:03.571Z,12.30
2023-04-02T10:51:41.382Z,14.13
2023-04-02T10:54:31.525Z,21.37
2023-04-02T10:57:07.845Z,12.77
2023-04-02T10:59:38.714Z,14.17
2023-04-02T11:02:27.243Z,12.43
2023-04-02T11:05:01.654Z,9.23
2023-04-02T11:07:44.529Z,11.23
2023-04-02T11:10:16.330Z,8.67
2023-04-02T11:12:52.196Z,7.37
2023-04-02T11:15:21.681Z,10.47
2023-04-02T11:17:50.085Z,7.90
2023-04-02T11:21:01.382Z,9.77
2023-04-02T11:23:52.454Z,13.53
2023-04-02T11:26:37.395Z,13.03
2023-04-02T11:29:15.607Z,14.13
2023-04-02T11:31:45.317Z,16.00
2023-04-02T11:35:06.645Z,12.70
2023-04-02T11:37:39.827Z,22.10
2023-04-02T11:40:50.443Z,13.93
2023-04-02T11:43:51.823Z,13.03
2023-04-02T11:46:47.207Z,8.90
2023-04-02T11:49:35.773Z,13.43
2023-04-02T11:52:12.112Z,14.77
2023-04-02T11:54:41.702Z,7.37
2023-04-02T11:57:28.117Z,9.90
2023-04-02T12:00:18.205Z,9.70
2023-04-02T12:03:06.775Z,22.73
2023-04-02T12:05:42.883Z,10.87
2023-04-02T12:08:25.456Z,15.60
2023-04-02T12:10:59.705Z,10.40
2023-04-02T12:13:52.433Z,10.63
2023-04-02T12:16:21.170Z,10.77
2023-04-02T12:18:53.965Z,10.53
2023-04-02T12:21:25.960Z,8.27
2023-04-02T12:23:57.221Z,8.37
2023-04-02T12:26:37.334Z,11.07
2023-04-02T12:29:25.536Z,10.47
2023-04-02T12:31:55.342Z,6.13
2023-04-02T12:34:25.644Z,8.70
2023-04-02T12:36:57.249Z,10.53
2023-04-02T12:39:28.065Z,8.70
2023-04-02T12:41:57.339Z,7.90
2023-04-02T12:44:29.685Z,6.90
2023-04-02T12:46:59.314Z,5.10
2023-04-02T12:49:36.866Z,8.67
2023-04-02T12:52:07.864Z,4.87
2023-04-02T12:54:39.553Z,8.37
2023-04-02T12:57:36.983Z,5.40
2023-04-02T13:00:45.114Z,3.93
2023-04-02T13:03:22.380Z,4.63
2023-04-02T13:05:55.404Z,3.73
2023-04-02T13:08:27.856Z,4.60
2023-04-02T13:10:58.944Z,5.03
2023-04-02T13:13:31.273Z,4.17
2023-04-02T13:16:25.740Z,4.90
2023-04-02T13:19:10.838Z,3.40
2023-04-02T13:21:39.351Z,4.00
2023-04-02T13:24:18.550Z,3.80
2023-04-02T13:26:48.783Z,6.17
2023-04-02T13:29:25.517Z,5.17
2023-04-02T13:31:58.687Z,4.90
2023-04-02T13:34:27.060Z,2.73
2023-04-02T13:36:55.372Z,5.20
2023-04-02T13:39:23.594Z,4.10
2023-04-02T13:41:57.228Z,4.37
2023-04-02T13:44:27.305Z,6.60
2023-04-02T13:46:58.251Z,6.60
2023-04-02T13:49:27.372Z,4.13
2023-04-02T13:51:57.967Z,4.47
2023-04-02T13:54:31.164Z,3.63
2023-04-02T13:56:59.354Z,3.57
2023-04-02T13:59:27.946Z,3.23
2023-04-02T14:02:00.549Z,4.20
2023-04-02T14:04:33.787Z,4.03
2023-04-02T14:07:40.565Z,3.90
2023-04-02T14:10:25.498Z,3.10
2023-04-02T14:13:12.831Z,4.10
2023-04-02T14:16:01.641Z,4.63
2023-04-02T14:18:53.970Z,3.30
2023-04-02T14:21:32.108Z,3.70
2023-04-02T14:24:16.136Z,2.83
2023-04-02T14:27:02.653Z,3.13
2023-04-02T14:29:40.211Z,3.30
2023-04-02T14:32:13.173Z,4.00
2023-04-02T14:34:53.428Z,4.57
2023-04-02T14:37:33.465Z,4.20
2023-04-02T14:40:12.689Z,4.77
2023-04-02T14:42:45.164Z,2.87
2023-04-02T14:45:21.673Z,3.63
2023-04-02T14:47:55.798Z,3.17
2023-04-02T14:50:30.993Z,3.33
2023-04-02T14:53:08.027Z,2.90
2023-04-02T14:55:42.361Z,4.00
2023-04-02T14:58:19.637Z,4.10
2023-04-02T15:00:59.544Z,4.67
2023-04-02T15:03:34.655Z,3.60
2023-04-02T15:06:07.559Z,4.13
2023-04-02T15:08:41.052Z,2.67
2023-04-02T15:11:17.930Z,2.53
2023-04-02T15:13:52.638Z,3.00
2023-04-02T15:16:23.470Z,6.67
2023-04-02T15:18:54.332Z,15.80
2023-04-02T15:21:55.902Z,5.80
2023-04-02T15:24:36.284Z,3.20
2023-04-02T15:27:25.533Z,5.60
2023-04-02T15:30:03.404Z,5.50
2023-04-02T15:32:39.000Z,2.80
2023-04-02T15:35:24.229Z,3.43
2023-04-02T15:38:01.260Z,2.53
2023-04-02T15:40:56.323Z,4.17
2023-04-02T15:43:30.394Z,4.53
2023-04-02T15:46:12.216Z,3.23
2023-04-02T15:49:02.421Z,4.27
2023-04-02T15:52:01.289Z,3.03
2023-04-02T15:54:55.452Z,6.30
2023-04-02T15:57:47.065Z,3.40
2023-04-02T16:00:26.474Z,4.73
2023-04-02T16:03:24.989Z,7.00
2023-04-02T16:06:16.959Z,4.30
2023-04-02T16:09:09.071Z,3.73
2023-04-02T16:11:39.479Z,7.40
2023-04-02T16:14:25.369Z,4.90
2023-04-02T16:17:03.870Z,8.57
2023-04-02T16:19:41.829Z,4.70
2023-04-02T16:22:18.449Z,4.70
2023-04-02T16:24:50.981Z,7.37
2023-04-02T16:27:28.071Z,4.00
2023-04-02T16:30:13.257Z,7.63
2023-04-02T16:33:11.424Z,5.67
2023-04-02T16:35:48.389Z,5.97
2023-04-02T16:38:31.603Z,4.87
2023-04-02T16:41:09.316Z,8.37
2023-04-02T16:43:52.149Z,9.27
2023-04-02T16:46:39.878Z,5.57
2023-04-02T16:49:22.023Z,4.60
2023-04-02T16:52:00.759Z,7.57
2023-04-02T16:54:36.940Z,10.57
2023-04-02T16:57:27.469Z,4.43
2023-04-02T17:00:11.948Z,7.27
2023-04-02T17:02:56.377Z,7.27
2023-04-02T17:05:32.478Z,8.30
2023-04-02T17:08:14.453Z,5.40
2023-04-02T17:10:52.302Z,5.13
2023-04-02T17:13:29.773Z,6.37
2023-04-02T17:16:10.203Z,5.53
2023-04-02T17:18:39.693Z,10.57
2023-04-02T17:21:12.123Z,7.17
2023-04-02T17:23:55.996Z,6.70
2023-04-02T17:26:28.673Z,5.47
2023-04-02T17:29:02.356Z,5.60
2023-04-02T17:31:35.770Z,5.70
2023-04-02T17:34:14.307Z,7.23
2023-04-02T17:36:50.230Z,7.23
2023-04-02T17:39:25.514Z,8.37
2023-04-02T17:42:02.272Z,6.00
2023-04-02T17:44:47.123Z,6.80
2023-04-02T17:47:22.279Z,8.03
2023-04-02T17:50:11.241Z,6.40
2023-04-02T17:52:46.409Z,10.77
2023-04-02T17:55:26.240Z,4.27
2023-04-02T17:58:07.778Z,7.57
2023-04-02T18:00:52.126Z,8.63
2023-04-02T18:03:43.524Z,5.50
2023-04-02T18:06:19.551Z,3.83
2023-04-02T18:09:05.126Z,6.77
2023-04-02T18:11:44.410Z,4.63
2023-04-02T18:14:31.664Z,4.70
2023-04-02T18:17:07.024Z,4.43
2023-04-02T18:19:44.284Z,4.53
2023-04-02T18:22:19.445Z,6.07
2023-04-02T18:25:34.433Z,5.50
2023-04-02T18:28:22.625Z,7.63
2023-04-02T18:30:58.950Z,4.67
2023-04-02T18:33:57.001Z,3.93
2023-04-02T18:36:33.128Z,6.07
2023-04-02T18:39:09.242Z,6.83
2023-04-02T18:41:47.260Z,4.00
2023-04-02T18:44:32.085Z,4.73
2023-04-02T18:47:08.414Z,8.03
2023-04-02T18:49:40.030Z,4.30
2023-04-02T18:52:14.915Z,3.70
2023-04-02T18:54:45.946Z,3.90
2023-04-02T18:57:18.388Z,4.20
2023-04-02T18:59:50.898Z,3.77
2023-04-02T19:02:40.975Z,3.90
2023-04-02T19:05:22.400Z,5.40
2023-04-02T19:07:58.912Z,4.03
2023-04-02T19:10:34.166Z,4.40
2023-04-02T19:13:02.545Z,3.93
2023-04-02T19:15:39.572Z,4.43
2023-04-02T19:18:17.443Z,3.97
2023-04-02T19:20:52.306Z,4.00
2023-04-02T19:23:40.768Z,6.80
2023-04-02T19:26:14.559Z,7.00
2023-04-02T19:28:50.910Z,2.83
2023-04-02T19:31:43.725Z,3.23
2023-04-02T19:34:21.311Z,3.63
2023-04-02T19:36:55.150Z,4.63
2023-04-02T19:39:59.871Z,3.93
2023-04-02T19:42:43.618Z,2.80
2023-04-02T19:45:32.865Z,4.40
2023-04-02T19:48:07.113Z,3.17
2023-04-02T19:50:35.229Z,3.87
2023-04-02T19:53:03.434Z,4.47
2023-04-02T19:55:32.867Z,6.60
2023-04-02T19:58:17.308Z,3.67
2023-04-02T20:00:47.741Z,3.30
2023-04-02T20:03:15.822Z,3.50
2023-04-02T20:05:43.847Z,3.80
2023-04-02T20:08:12.117Z,2.90
2023-04-02T20:10:42.720Z,3.77
2023-04-02T20:13:10.793Z,5.70
2023-04-02T20:15:40.479Z,3.50
2023-04-02T20:18:09.397Z,3.93
2023-04-02T20:20:38.945Z,5.70
2023-04-02T20:23:07.080Z,5.53
2023-04-02T20:25:35.059Z,4.87
2023-04-02T20:28:04.719Z,3.60
2023-04-02T20:30:33.288Z,4.10
2023-04-02T20:33:01.472Z,4.60
2023-04-02T20:35:30.953Z,2.90
2023-04-02T20:37:59.011Z,4.43
2023-04-02T20:40:27.229Z,3.70
2023-04-02T20:42:55.208Z,3.63
2023-04-02T20:45:27.650Z,3.43
2023-04-02T20:47:55.794Z,3.70
2023-04-02T20:50:23.816Z,4.30
2023-04-02T20:52:52.570Z,3.50
2023-04-02T20:55:20.593Z,3.50
2023-04-02T20:57:48.650Z,3.13
2023-04-02T21:00:17.723Z,4.00
2023-04-02T21:02:47.072Z,4.40
2023-04-02T21:05:15.260Z,3.00
2023-04-02T21:07:43.322Z,6.37
2023-04-02T21:10:11.886Z,3.67
2023-04-02T21:12:39.862Z,3.57
2023-04-02T21:15:11.515Z,3.00
2023-04-02T21:17:39.705Z,3.43
2023-04-02T21:20:11.425Z,3.50
2023-04-02T21:22:40.495Z,3.27
2023-04-02T21:25:09.775Z,2.60
2023-04-02T21:27:37.797Z,2.80
2023-04-02T21:30:07.189Z,3.63
2023-04-02T21:32:35.277Z,5.50
2023-04-02T21:35:03.276Z,3.33
2023-04-02T21:37:32.657Z,4.30
2023-04-02T21:40:01.739Z,3.57
2023-04-02T21:42:30.039Z,3.60
2023-04-02T21:44:58.119Z,4.50
2023-04-02T21:47:27.570Z,2.87
2023-04-02T21:49:55.633Z,4.47
2023-04-02T21:52:23.664Z,2.47
2023-04-02T21:54:52.950Z,4.00
2023-04-02T21:57:21.026Z,4.20
2023-04-02T21:59:49.051Z,3.70
2023-04-02T22:02:17.043Z,3.30
2023-04-02T22:04:45.087Z,3.50
2023-04-02T22:07:13.109Z,3.53
2023-04-02T22:09:41.213Z,3.67
2023-04-02T22:12:10.881Z,3.10
2023-04-02T22:14:38.921Z,3.80
2023-04-02T22:17:07.392Z,3.57
2023-04-02T22:19:35.580Z,2.57
2023-04-02T22:22:03.600Z,4.73
2023-04-02T22:24:31.763Z,3.03
2023-04-02T22:26:59.725Z,4.97
2023-04-02T22:29:29.126Z,2.50
2023-04-02T22:31:57.138Z,3.50
2023-04-02T22:34:25.332Z,3.00
2023-04-02T22:36:53.515Z,3.10
2023-04-02T22:39:21.638Z,3.07
2023-04-02T22:41:49.605Z,2.67
2023-04-02T22:44:18.033Z,2.90
2023-04-02T22:46:47.418Z,4.23
2023-04-02T22:49:18.980Z,2.30
2023-04-02T22:51:47.643Z,2.63
2023-04-02T22:54:15.892Z,2.73
2023-04-02T22:56:43.992Z,3.40
2023-04-02T22:59:11.955Z,3.20
2023-04-02T23:01:40.071Z,2.73
2023-04-02T23:04:09.892Z,2.43
2023-04-02T23:06:37.833Z,2.37
2023-04-02T23:09:05.814Z,2.93
2023-04-02T23:11:34.033Z,3.80
2023-04-02T23:14:02.061Z,4.47
2023-04-02T23:16:30.419Z,2.83
2023-04-02T23:18:58.891Z,2.43
2023-04-02T23:21:28.744Z,4.47
2023-04-02T23:23:56.774Z,3.57
2023-04-02T23:26:31.082Z,2.00
2023-04-02T23:29:00.347Z,3.60
2023-04-02T23:31:29.010Z,3.43
2023-04-02T23:33:57.151Z,2.40
2023-04-02T23:36:29.768Z,4.10
2023-04-02T23:39:03.978Z,2.30
2023-04-02T23:41:32.832Z,3.60
2023-04-02T23:44:01.175Z,2.30
2023-04-02T23:46:30.455Z,2.53
2023-04-02T23:48:59.569Z,2.20
2023-04-02T23:51:31.109Z,3.00
2023-04-02T23:53:59.508Z,2.90
2023-04-02T23:56:27.674Z,3.53
2023-04-02T23:58:55.753Z,2.70
